createdAt,value
2022-11-09T00:01:36.556Z,99.90
2022-11-09T00:04:06.912Z,99.90
2022-11-09T00:06:36.234Z,99.90
2022-11-09T00:09:08.136Z,99.90
2022-11-09T00:11:38.660Z,99.90
2022-11-09T00:14:07.734Z,99.90
2022-11-09T00:16:37.787Z,99.90
2022-11-09T00:19:06.536Z,99.90
2022-11-09T00:21:35.309Z,99.90
2022-11-09T00:24:06.891Z,99.90
2022-11-09T00:26:35.482Z,99.90
2022-11-09T00:29:04.103Z,99.90
2022-11-09T00:31:32.788Z,99.90
2022-11-09T00:34:02.814Z,99.90
2022-11-09T00:36:31.790Z,99.90
2022-11-09T00:39:02.152Z,99.90
2022-11-09T00:41:31.233Z,99.90
2022-11-09T00:43:59.841Z,99.90
2022-11-09T00:46:28.955Z,99.90
2022-11-09T00:48:57.973Z,99.90
2022-11-09T00:51:28.046Z,99.90
2022-11-09T00:53:58.717Z,99.90
2022-11-09T00:56:27.580Z,99.90
2022-11-09T00:58:56.942Z,99.90
2022-11-09T01:01:25.959Z,99.90
2022-11-09T01:03:55.527Z,99.90
2022-11-09T01:06:26.733Z,99.90
2022-11-09T01:08:56.940Z,99.90
2022-11-09T01:11:25.736Z,99.90
2022-11-09T01:13:55.938Z,99.90
2022-11-09T01:16:25.539Z,99.90
2022-11-09T01:18:55.716Z,99.90
2022-11-09T01:21:27.069Z,99.90
2022-11-09T01:23:59.566Z,99.90
2022-11-09T01:26:29.479Z,99.90
2022-11-09T01:28:58.113Z,99.90
2022-11-09T01:31:26.985Z,99.90
2022-11-09T01:33:55.989Z,99.90
2022-11-09T01:36:26.108Z,99.90
2022-11-09T01:38:54.881Z,99.90
2022-11-09T01:41:26.762Z,99.90
2022-11-09T01:44:11.564Z,99.90
2022-11-09T01:46:51.511Z,99.90
2022-11-09T01:49:25.939Z,99.90
2022-11-09T01:51:58.013Z,99.90
2022-11-09T01:54:29.981Z,99.90
2022-11-09T01:57:04.251Z,99.90
2022-11-09T01:59:38.670Z,99.90
2022-11-09T02:02:07.500Z,99.90
2022-11-09T02:04:46.365Z,99.90
2022-11-09T02:07:15.738Z,99.90
2022-11-09T02:09:50.815Z,99.90
2022-11-09T02:12:24.250Z,99.90
2022-11-09T02:14:55.119Z,99.90
2022-11-09T02:17:24.269Z,99.90
2022-11-09T02:19:53.319Z,99.90
2022-11-09T02:22:23.501Z,99.90
2022-11-09T02:24:56.113Z,99.90
2022-11-09T02:27:26.083Z,99.90
2022-11-09T02:29:55.954Z,99.90
2022-11-09T02:32:28.874Z,99.90
2022-11-09T02:34:59.395Z,99.90
2022-11-09T02:37:31.732Z,99.90
2022-11-09T02:40:02.478Z,99.90
2022-11-09T02:42:32.992Z,99.90
2022-11-09T02:45:01.806Z,99.90
2022-11-09T02:47:30.435Z,99.90
2022-11-09T02:49:59.962Z,99.90
2022-11-09T02:52:30.253Z,99.90
2022-11-09T02:54:58.961Z,99.90
2022-11-09T02:57:27.635Z,99.90
2022-11-09T02:59:56.282Z,99.90
2022-11-09T03:02:25.067Z,99.90
2022-11-09T03:04:53.896Z,99.90
2022-11-09T03:07:23.323Z,99.90
2022-11-09T03:09:54.062Z,99.90
2022-11-09T03:12:30.969Z,99.90
2022-11-09T03:15:08.501Z,99.90
2022-11-09T03:17:43.456Z,99.90
2022-11-09T03:20:13.300Z,99.90
2022-11-09T03:22:43.359Z,99.90
2022-11-09T03:25:13.920Z,99.90
2022-11-09T03:27:42.606Z,99.90
2022-11-09T03:30:12.076Z,99.90
2022-11-09T03:32:41.690Z,99.90
2022-11-09T03:35:11.009Z,99.90
2022-11-09T03:37:39.996Z,99.90
2022-11-09T03:40:09.715Z,99.90
2022-11-09T03:42:46.007Z,99.90
2022-11-09T03:45:16.646Z,99.90
2022-11-09T03:47:45.809Z,99.90
2022-11-09T03:50:16.364Z,99.90
2022-11-09T03:52:46.752Z,99.90
2022-11-09T03:55:16.412Z,99.90
2022-11-09T03:57:48.000Z,99.90
2022-11-09T04:00:19.488Z,99.90
2022-11-09T04:02:49.216Z,99.90
2022-11-09T04:05:18.920Z,99.90
2022-11-09T04:07:51.774Z,99.90
2022-11-09T04:10:21.212Z,99.90
2022-11-09T04:12:51.435Z,99.90
2022-11-09T04:15:20.577Z,99.90
2022-11-09T04:17:57.166Z,99.90
2022-11-09T04:20:26.331Z,99.90
2022-11-09T04:22:59.504Z,99.90
2022-11-09T04:25:29.166Z,99.90
2022-11-09T04:27:59.788Z,99.90
2022-11-09T04:30:30.736Z,99.90
2022-11-09T04:33:00.955Z,99.90
2022-11-09T04:35:31.339Z,99.90
2022-11-09T04:38:01.374Z,99.90
2022-11-09T04:40:32.108Z,99.90
2022-11-09T04:43:03.712Z,99.90
2022-11-09T04:45:33.598Z,99.90
2022-11-09T04:48:03.006Z,99.90
2022-11-09T04:50:31.681Z,99.90
2022-11-09T04:53:10.062Z,99.90
2022-11-09T04:55:38.898Z,99.90
2022-11-09T04:58:09.935Z,99.90
2022-11-09T05:00:39.778Z,99.90
2022-11-09T05:03:09.390Z,99.90
2022-11-09T05:05:44.007Z,99.90
2022-11-09T05:08:15.742Z,99.90
2022-11-09T05:10:44.926Z,99.90
2022-11-09T05:13:15.828Z,99.90
2022-11-09T05:15:45.175Z,99.90
2022-11-09T05:18:13.866Z,99.90
2022-11-09T05:20:42.434Z,99.90
2022-11-09T05:23:29.092Z,99.90
2022-11-09T05:25:57.730Z,99.90
2022-11-09T05:28:28.070Z,99.90
2022-11-09T05:31:00.910Z,99.90
2022-11-09T05:33:29.571Z,99.90
2022-11-09T05:35:58.383Z,99.90
2022-11-09T05:38:27.098Z,99.90
2022-11-09T05:40:57.114Z,99.90
2022-11-09T05:43:27.260Z,99.90
2022-11-09T05:45:55.937Z,99.90
2022-11-09T05:48:24.562Z,99.90
2022-11-09T05:50:53.542Z,99.90
2022-11-09T05:53:28.223Z,99.90
2022-11-09T05:55:57.192Z,99.90
2022-11-09T05:58:27.221Z,99.90
2022-11-09T06:00:55.915Z,99.90
2022-11-09T06:03:24.532Z,99.90
2022-11-09T06:06:20.588Z,99.90
2022-11-09T06:08:50.888Z,99.90
2022-11-09T06:11:23.909Z,99.90
2022-11-09T06:13:54.777Z,99.90
2022-11-09T06:16:23.381Z,99.90
2022-11-09T06:18:52.037Z,99.90
2022-11-09T06:21:20.664Z,99.90
2022-11-09T06:23:49.446Z,99.90
2022-11-09T06:26:18.058Z,99.90
2022-11-09T06:28:47.656Z,99.90
2022-11-09T06:31:21.112Z,99.90
2022-11-09T06:33:49.825Z,99.90
2022-11-09T06:36:18.613Z,99.90
2022-11-09T06:38:50.698Z,99.90
2022-11-09T06:41:19.739Z,99.90
2022-11-09T06:43:48.335Z,99.90
2022-11-09T06:46:18.595Z,99.90
2022-11-09T06:48:51.871Z,99.90
2022-11-09T06:51:22.977Z,99.90
2022-11-09T06:53:51.870Z,99.90
2022-11-09T06:56:20.486Z,99.90
2022-11-09T06:58:49.212Z,99.90
2022-11-09T07:01:21.882Z,99.90
2022-11-09T07:03:50.555Z,99.90
2022-11-09T07:06:19.203Z,99.90
2022-11-09T07:08:47.802Z,99.90
2022-11-09T07:11:17.633Z,99.90
2022-11-09T07:13:46.679Z,99.90
2022-11-09T07:16:17.419Z,99.90
2022-11-09T07:18:47.897Z,99.90
2022-11-09T07:21:17.063Z,99.90
2022-11-09T07:23:49.330Z,99.90
2022-11-09T07:26:18.552Z,99.90
2022-11-09T07:28:47.121Z,99.90
2022-11-09T07:31:15.754Z,99.90
2022-11-09T07:33:44.384Z,99.90
2022-11-09T07:36:19.767Z,99.90
2022-11-09T07:38:49.979Z,99.90
2022-11-09T07:41:18.546Z,99.90
2022-11-09T07:43:47.360Z,99.90
2022-11-09T07:46:16.016Z,99.90
2022-11-09T07:48:44.627Z,99.90
2022-11-09T07:51:14.716Z,99.90
2022-11-09T07:53:43.478Z,99.90
2022-11-09T07:56:12.097Z,99.90
2022-11-09T07:58:41.057Z,99.90
2022-11-09T08:01:10.656Z,99.90
2022-11-09T08:03:39.523Z,99.90
2022-11-09T08:06:08.198Z,99.90
2022-11-09T08:08:38.269Z,99.90
2022-11-09T08:11:07.136Z,99.90
2022-11-09T08:13:35.719Z,99.90
2022-11-09T08:16:05.121Z,99.90
2022-11-09T08:18:33.879Z,99.90
2022-11-09T08:21:03.952Z,99.90
2022-11-09T08:23:32.644Z,99.90
2022-11-09T08:26:06.114Z,99.90
2022-11-09T08:28:36.512Z,99.90
2022-11-09T08:31:08.129Z,99.90
2022-11-09T08:33:40.950Z,99.90
2022-11-09T08:36:12.093Z,99.90
2022-11-09T08:38:41.371Z,99.90
2022-11-09T08:41:13.633Z,99.90
2022-11-09T08:43:42.795Z,99.90
2022-11-09T08:46:11.410Z,99.90
2022-11-09T08:48:40.128Z,99.90
2022-11-09T08:51:08.749Z,99.90
2022-11-09T08:53:37.396Z,99.90
2022-11-09T08:56:07.989Z,99.90
2022-11-09T08:58:38.335Z,99.90
2022-11-09T09:01:15.349Z,99.90
2022-11-09T09:03:45.677Z,99.90
2022-11-09T09:06:14.593Z,99.90
2022-11-09T09:08:43.370Z,99.90
2022-11-09T09:11:11.994Z,99.90
2022-11-09T09:13:43.705Z,99.90
2022-11-09T09:16:13.706Z,99.90
2022-11-09T09:18:42.321Z,99.90
2022-11-09T09:21:12.062Z,99.90
2022-11-09T09:23:40.700Z,99.90
2022-11-09T09:26:09.360Z,99.90
2022-11-09T09:28:38.198Z,99.90
2022-11-09T09:31:08.820Z,99.90
2022-11-09T09:33:37.537Z,99.90
2022-11-09T09:36:06.571Z,99.90
2022-11-09T09:38:35.209Z,99.90
2022-11-09T09:41:06.681Z,99.90
2022-11-09T09:43:43.319Z,99.90
2022-11-09T09:46:21.410Z,99.90
2022-11-09T09:48:54.660Z,99.90
2022-11-09T09:51:39.170Z,99.90
2022-11-09T09:54:18.510Z,99.90
2022-11-09T09:56:50.234Z,99.90
2022-11-09T09:59:24.982Z,99.90
2022-11-09T10:01:57.540Z,99.90
2022-11-09T10:04:37.290Z,99.90
2022-11-09T10:07:12.632Z,99.90
2022-11-09T10:09:54.856Z,99.90
2022-11-09T10:12:34.563Z,99.90
2022-11-09T10:15:14.147Z,99.90
2022-11-09T10:17:53.200Z,99.90
2022-11-09T10:20:32.910Z,99.90
2022-11-09T10:23:18.070Z,99.90
2022-11-09T10:26:03.504Z,99.90
2022-11-09T10:29:09.239Z,99.90
2022-11-09T10:31:33.866Z,99.90
2022-11-09T10:34:15.367Z,99.90
2022-11-09T10:36:49.812Z,99.90
2022-11-09T10:39:19.846Z,99.90
2022-11-09T10:42:07.152Z,99.90
2022-11-09T10:44:55.604Z,99.90
2022-11-09T10:47:50.297Z,99.90
2022-11-09T10:50:41.118Z,99.90
2022-11-09T10:53:30.878Z,99.90
2022-11-09T10:56:22.128Z,99.90
2022-11-09T10:59:42.296Z,99.90
2022-11-09T11:02:45.668Z,99.90
2022-11-09T11:05:37.470Z,99.90
2022-11-09T11:08:36.442Z,99.90
2022-11-09T11:11:37.043Z,99.90
2022-11-09T11:14:33.113Z,99.90
2022-11-09T11:17:26.518Z,99.90
2022-11-09T11:20:29.742Z,99.90
2022-11-09T11:23:21.085Z,99.90
2022-11-09T11:26:32.916Z,99.90
2022-11-09T11:29:44.504Z,99.90
2022-11-09T11:32:32.576Z,99.90
2022-11-09T11:35:24.552Z,99.90
2022-11-09T11:38:24.016Z,99.90
2022-11-09T11:41:42.658Z,99.90
2022-11-09T11:44:46.827Z,99.90
2022-11-09T11:47:48.721Z,99.90
2022-11-09T11:50:45.654Z,99.90
2022-11-09T11:53:47.466Z,99.90
2022-11-09T11:56:39.271Z,99.90
2022-11-09T11:59:50.909Z,99.90
2022-11-09T12:03:06.541Z,99.70
2022-11-09T12:06:18.749Z,99.90
2022-11-09T12:09:20.796Z,98.40
2022-11-09T12:12:20.815Z,96.50
2022-11-09T12:15:24.814Z,95.70
2022-11-09T12:18:25.664Z,93.90
2022-11-09T12:21:17.900Z,92.00
2022-11-09T12:24:19.902Z,90.80
2022-11-09T12:27:32.953Z,90.10
2022-11-09T12:30:24.293Z,89.00
2022-11-09T12:33:16.869Z,85.90
2022-11-09T12:36:13.577Z,79.60
2022-11-09T12:39:05.699Z,77.60
2022-11-09T12:41:55.086Z,76.50
2022-11-09T12:44:48.289Z,73.30
2022-11-09T12:47:42.807Z,73.70
2022-11-09T12:50:30.766Z,71.20
2022-11-09T12:53:19.308Z,70.90
2022-11-09T12:56:11.420Z,70.50
2022-11-09T12:59:23.539Z,70.20
2022-11-09T13:02:25.934Z,71.50
2022-11-09T13:08:19.744Z,77.80
2022-11-09T13:11:18.814Z,90.30
2022-11-09T13:14:35.242Z,92.00
2022-11-09T13:18:01.620Z,93.80
2022-11-09T13:20:55.883Z,95.20
2022-11-09T13:24:04.368Z,96.50
2022-11-09T13:27:02.370Z,97.70
2022-11-09T13:29:55.277Z,99.20
2022-11-09T13:33:25.881Z,99.90
2022-11-09T13:36:22.504Z,99.90
2022-11-09T13:39:33.577Z,99.90
2022-11-09T13:42:29.081Z,99.90
2022-11-09T13:45:29.250Z,99.90
2022-11-09T13:48:40.134Z,99.90
2022-11-09T13:51:43.781Z,99.90
2022-11-09T13:54:35.026Z,99.90
2022-11-09T13:57:33.564Z,99.90
2022-11-09T14:00:24.503Z,99.90
2022-11-09T14:03:22.036Z,99.90
2022-11-09T14:06:16.920Z,99.90
2022-11-09T14:09:04.648Z,99.90
2022-11-09T14:12:17.328Z,99.90
2022-11-09T14:15:34.231Z,99.90
2022-11-09T14:18:32.937Z,99.90
2022-11-09T14:21:33.252Z,99.90
2022-11-09T14:24:21.984Z,99.90
2022-11-09T14:27:19.981Z,99.90
2022-11-09T14:30:20.540Z,99.90
2022-11-09T14:33:25.536Z,99.90
2022-11-09T14:36:14.384Z,99.90
2022-11-09T14:39:04.004Z,99.90
2022-11-09T14:41:52.581Z,99.90
2022-11-09T14:44:45.293Z,99.90
2022-11-09T14:47:35.891Z,99.90
2022-11-09T14:50:25.391Z,99.90
2022-11-09T14:53:16.547Z,99.90
2022-11-09T14:56:05.928Z,99.90
2022-11-09T14:58:53.740Z,99.90
2022-11-09T15:01:58.546Z,99.90
2022-11-09T15:05:01.390Z,99.90
2022-11-09T15:07:49.689Z,99.90
2022-11-09T15:10:37.154Z,99.90
2022-11-09T15:13:32.368Z,99.90
2022-11-09T15:16:24.936Z,99.90
2022-11-09T15:19:25.029Z,99.90
2022-11-09T15:22:43.841Z,99.90
2022-11-09T15:25:34.234Z,99.90
2022-11-09T15:28:26.693Z,99.90
2022-11-09T15:31:17.145Z,99.90
2022-11-09T15:34:19.768Z,99.90
2022-11-09T15:37:21.605Z,99.90
2022-11-09T15:40:13.712Z,99.90
2022-11-09T15:43:00.997Z,99.90
2022-11-09T15:45:48.448Z,99.90
2022-11-09T15:48:36.918Z,99.90
2022-11-09T15:51:24.253Z,99.90
2022-11-09T15:54:13.028Z,99.90
2022-11-09T15:57:00.461Z,99.90
2022-11-09T15:59:48.551Z,99.90
2022-11-09T16:02:36.614Z,99.90
2022-11-09T16:05:27.840Z,99.90
2022-11-09T16:08:23.830Z,99.90
2022-11-09T16:11:12.935Z,99.90
2022-11-09T16:14:02.406Z,99.90
2022-11-09T16:16:50.204Z,99.90
2022-11-09T16:19:39.745Z,99.90
2022-11-09T16:22:33.634Z,99.90
2022-11-09T16:25:21.037Z,99.90
2022-11-09T16:28:09.999Z,99.90
2022-11-09T16:30:57.787Z,99.90
2022-11-09T16:33:45.249Z,99.90
2022-11-09T16:36:34.084Z,99.90
2022-11-09T16:39:25.101Z,99.90
2022-11-09T16:42:15.636Z,99.90
2022-11-09T16:45:09.219Z,99.90
2022-11-09T16:47:58.548Z,99.90
2022-11-09T16:50:47.377Z,99.90
2022-11-09T16:53:34.892Z,99.90
2022-11-09T16:56:22.391Z,99.90
2022-11-09T16:59:09.807Z,99.90
2022-11-09T17:01:59.992Z,99.90
2022-11-09T17:04:47.608Z,99.90
2022-11-09T17:07:42.193Z,99.90
2022-11-09T17:10:31.222Z,99.90
2022-11-09T17:13:18.818Z,99.90
2022-11-09T17:16:07.580Z,99.90
2022-11-09T17:18:57.361Z,99.90
2022-11-09T17:21:44.680Z,99.90
2022-11-09T17:24:34.618Z,99.90
2022-11-09T17:27:21.726Z,99.90
2022-11-09T17:30:12.671Z,99.90
2022-11-09T17:33:00.057Z,99.90
2022-11-09T17:35:48.845Z,99.90
2022-11-09T17:38:36.067Z,99.90
2022-11-09T17:41:23.278Z,99.90
2022-11-09T17:44:11.406Z,99.90
2022-11-09T17:46:58.891Z,99.90
2022-11-09T17:49:45.955Z,99.90
2022-11-09T17:52:34.541Z,99.90
2022-11-09T17:55:21.472Z,99.90
2022-11-09T17:58:08.586Z,99.90
2022-11-09T18:00:56.580Z,99.90
2022-11-09T18:03:45.166Z,99.90
2022-11-09T18:06:32.621Z,99.90
2022-11-09T18:12:28.783Z,99.90
2022-11-09T18:15:16.153Z,99.90
2022-11-09T18:18:04.695Z,99.90
2022-11-09T18:20:52.076Z,99.90
2022-11-09T18:23:39.549Z,99.90
2022-11-09T18:26:29.447Z,99.90
2022-11-09T18:29:16.951Z,99.90
2022-11-09T18:32:04.302Z,99.90
2022-11-09T18:34:52.690Z,99.90
2022-11-09T18:37:40.352Z,99.90
2022-11-09T18:40:27.814Z,99.90
2022-11-09T18:43:16.618Z,99.90
2022-11-09T18:46:06.990Z,99.90
2022-11-09T18:48:55.190Z,99.90
2022-11-09T18:51:44.658Z,99.90
2022-11-09T18:54:32.926Z,99.90
2022-11-09T18:57:20.289Z,99.90
2022-11-09T19:00:11.007Z,99.90
2022-11-09T19:02:58.467Z,99.90
2022-11-09T19:05:48.346Z,99.90
2022-11-09T19:09:08.603Z,99.90
2022-11-09T19:11:56.029Z,99.90
2022-11-09T19:14:44.747Z,99.90
2022-11-09T19:17:34.078Z,99.90
2022-11-09T19:20:22.403Z,99.90
2022-11-09T19:23:09.675Z,99.90
2022-11-09T19:25:58.300Z,99.90
2022-11-09T19:28:45.705Z,99.90
2022-11-09T19:31:33.007Z,99.90
2022-11-09T19:34:22.786Z,99.90
2022-11-09T19:37:11.203Z,99.90
2022-11-09T19:39:58.658Z,99.90
2022-11-09T19:42:45.762Z,99.90
2022-11-09T19:45:33.180Z,99.90
2022-11-09T19:48:20.647Z,99.90
2022-11-09T19:51:09.659Z,99.90
2022-11-09T19:53:58.644Z,99.90
2022-11-09T19:56:45.851Z,99.90
2022-11-09T19:59:34.492Z,99.90
2022-11-09T20:02:22.042Z,99.90
2022-11-09T20:05:09.732Z,99.90
2022-11-09T20:07:59.498Z,99.90
2022-11-09T20:10:46.899Z,99.90
2022-11-09T20:13:34.215Z,99.90
2022-11-09T20:16:21.283Z,99.90
2022-11-09T20:19:11.432Z,99.90
2022-11-09T20:21:58.881Z,99.90
2022-11-09T20:24:47.450Z,99.90
2022-11-09T20:27:34.919Z,99.90
2022-11-09T20:30:22.541Z,99.90
2022-11-09T20:33:11.181Z,99.90
2022-11-09T20:35:59.048Z,99.90
2022-11-09T20:38:48.728Z,99.90
2022-11-09T20:41:37.304Z,99.90
2022-11-09T20:44:24.822Z,99.90
2022-11-09T20:47:12.046Z,99.90
2022-11-09T20:49:59.150Z,99.90
2022-11-09T20:52:46.313Z,99.90
2022-11-09T20:55:33.510Z,99.90
2022-11-09T20:58:23.372Z,99.90
2022-11-09T21:01:16.810Z,99.90
2022-11-09T21:04:04.730Z,99.90
2022-11-09T21:06:55.599Z,99.90
2022-11-09T21:09:42.781Z,99.90
2022-11-09T21:12:30.754Z,99.90
2022-11-09T21:15:19.769Z,99.90
2022-11-09T21:18:09.053Z,99.90
2022-11-09T21:20:56.665Z,99.90
2022-11-09T21:24:01.679Z,99.90
2022-11-09T21:27:06.231Z,99.90
2022-11-09T21:29:55.798Z,99.90
2022-11-09T21:32:44.699Z,99.90
2022-11-09T21:35:32.153Z,99.90
2022-11-09T21:38:19.880Z,99.90
2022-11-09T21:41:24.064Z,99.90
2022-11-09T21:44:13.337Z,99.90
2022-11-09T21:47:01.101Z,99.90
2022-11-09T21:49:49.666Z,99.90
2022-11-09T21:52:37.155Z,99.90
2022-11-09T21:55:24.554Z,99.90
2022-11-09T21:58:11.632Z,99.90
2022-11-09T22:01:02.177Z,99.90
2022-11-09T22:03:49.651Z,99.90
2022-11-09T22:06:40.670Z,99.90
2022-11-09T22:09:32.450Z,99.90
2022-11-09T22:12:46.026Z,99.90
2022-11-09T22:15:50.464Z,99.90
2022-11-09T22:18:55.970Z,99.90
2022-11-09T22:21:44.879Z,99.90
2022-11-09T22:24:32.351Z,99.90
2022-11-09T22:27:19.570Z,99.90
2022-11-09T22:30:08.544Z,99.90
2022-11-09T22:32:58.921Z,99.90
2022-11-09T22:35:46.362Z,99.90
2022-11-09T22:38:37.020Z,99.90
2022-11-09T22:41:24.959Z,99.90
2022-11-09T22:44:13.160Z,99.90
2022-11-09T22:47:01.043Z,99.90
2022-11-09T22:49:49.072Z,99.90
2022-11-09T22:52:36.150Z,99.90
2022-11-09T22:55:25.323Z,99.90
2022-11-09T22:58:13.676Z,99.90
2022-11-09T23:01:07.703Z,99.90
2022-11-09T23:03:55.309Z,99.90
2022-11-09T23:06:43.693Z,99.90
2022-11-09T23:09:30.935Z,99.90
2022-11-09T23:12:19.318Z,99.90
2022-11-09T23:15:12.814Z,99.90
2022-11-09T23:18:17.278Z,99.90
2022-11-09T23:21:04.378Z,99.90
2022-11-09T23:23:53.551Z,99.90
2022-11-09T23:26:40.965Z,99.90
2022-11-09T23:29:29.523Z,99.90
2022-11-09T23:32:17.877Z,99.90
2022-11-09T23:35:08.313Z,99.90
2022-11-09T23:38:00.414Z,99.90
2022-11-09T23:40:47.796Z,99.90
2022-11-09T23:43:35.561Z,99.90
2022-11-09T23:46:24.594Z,99.90
2022-11-09T23:49:11.678Z,99.90
2022-11-09T23:51:58.774Z,99.90
2022-11-09T23:54:46.867Z,99.90
2022-11-09T23:57:35.188Z,99.90
